EST,Max TemperatureF,Mean TemperatureF,Min TemperatureF,Max Dew PointF,MeanDew PointF,Min DewpointF,Max Humidity, Mean Humidity, Min Humidity, Max Sea Level PressureIn, Mean Sea Level PressureIn, Min Sea Level PressureIn, Max VisibilityMiles, Mean VisibilityMiles, Min VisibilityMiles, Max Wind SpeedMPH, Mean Wind SpeedMPH, Max Gust SpeedMPH,PrecipitationIn, CloudCover, Events, WindDirDegrees
2012-12-1,53,42,32,46,37,28,100,89,76,30.31,30.21,30.04,10,5,2,17,8,24,0.00,7,,107
2012-12-2,57,54,44,55,52,45,100,94,82,30.13,29.97,29.90,12,7,2,15,11,18,0.18,7,Rain,238
2012-12-3,53,43,33,54,47,34,100,100,93,30.17,30.08,29.96,10,1,0,14,6,,0.00,7,Fog,142
2012-12-4,59,50,41,57,48,34,100,88,70,30.09,29.96,29.89,12,9,2,15,10,,0.22,6,Rain,252
2012-12-5,37,30,23,23,21,19,86,67,52,30.43,30.39,30.26,12,11,10,20,11,28,0.00,3,,349
2012-12-6,39,34,28,32,30,23,87,81,70,30.34,30.16,30.01,12,10,10,16,9,,0.00,8,,159
2012-12-7,42,38,35,43,40,34,100,97,87,29.99,29.94,29.89,10,3,1,6,3,,0.11,8,Rain,254
2012-12-8,41,36,32,41,36,30,100,96,87,30.18,29.96,29.81,10,6,2,14,8,,0.05,8,Rain,349
2012-12-9,35,34,32,34,31,28,100,91,81,30.23,29.95,29.67,12,7,1,16,11,22,0.16,8,Rain,48
2012-12-10,41,36,30,41,34,23,100,89,69,29.86,29.67,29.57,12,8,5,16,8,21,0.00,8,,289
2012-12-11,37,32,26,25,21,18,80,65,52,30.16,30.05,29.89,12,12,12,15,8,24,0.00,4,,251
2012-12-12,44,35,26,27,24,23,86,71,43,30.40,30.34,30.24,12,11,10,14,10,17,0.00,1,,220
2012-12-13,46,35,24,30,27,21,100,71,43,30.40,30.32,30.19,12,10,10,17,9,,0.00,2,,199
2012-12-14,46,38,30,34,30,27,100,78,57,30.27,30.24,30.21,10,9,7,8,6,,0.00,6,,213
2012-12-15,42,34,26,41,37,27,100,92,76,30.29,30.00,29.73,7,5,1,21,8,30,0.00,7,Rain,108
2012-12-16,51,48,44,50,47,45,100,95,82,29.67,29.64,29.58,10,6,2,12,9,,0.20,8,Rain,202
2012-12-17,42,40,39,39,37,34,93,84,76,29.76,29.69,29.64,12,11,8,8,5,,0.00,8,,289
2012-12-18,42,38,33,34,30,27,93,75,57,29.78,29.74,29.61,12,11,8,13,7,,0.00,6,Rain,279
2012-12-19,39,34,28,36,32,28,100,88,75,30.17,30.05,29.84,8,6,2,10,5,,0.00,6,Fog,260
2012-12-20,44,42,39,45,40,36,100,94,76,29.98,29.39,29.15,12,7,2,36,19,46,0.44,8,Rain,137
2012-12-21,33,30,28,32,28,23,100,88,75,29.80,29.39,29.18,10,5,1,24,11,43,0.07,8,Rain-Snow,301
2012-12-22,30,30,30,23,21,19,75,70,64,30.07,30.02,29.88,12,12,12,20,14,29,0.00,6,,286
2012-12-23,33,28,23,23,21,19,86,73,64,30.06,29.97,29.89,12,10,5,13,6,,0.00,4,,304
2012-12-24,32,26,21,28,24,16,100,82,69,30.03,29.93,29.82,12,9,1,15,10,,0.02,8,Snow,46
2012-12-25,,,,,,,,,,,,,,,,,,,0.00,,,-1
2012-12-26,30,27,24,27,25,21,100,90,69,30.18,29.91,29.83,10,3,0,23,17,31,0.10,8,Snow,27
2012-12-27,32,21,10,30,20,7,100,87,69,30.18,30.06,29.90,12,9,2,20,12,22,0.01,5,Fog-Snow,341
2012-12-28,26,16,6,25,18,3,100,91,85,30.20,30.09,29.97,10,6,1,8,2,,0.01,7,Snow,49
2012-12-29,30,27,24,25,24,18,100,86,74,30.02,29.86,29.78,10,5,1,16,9,,0.04,8,Snow,338
2012-12-30,30,26,19,25,20,14,86,80,69,30.31,30.25,30.09,12,10,4,14,9,,0.00,7,Snow,243
2012-12-31,35,29,23,27,22,18,80,73,64,30.09,29.99,29.91,12,11,7,16,11,24,0.00,8,,241